map of SON home
SON - Airport
Location
City:  Espíritu Santo, Espíritu Santo Island, Sanma, Vanuatu
Near (Alt.):Luganville
Name:Santo-Pekoa International Airport
ICAO:NVSS
IATA:SON

Details
Type:Airport (Aerodrome, Airfield)
Use:International (customs port of entry)
Latitude:15°30'21"S (-15.505766)
Longitude:167°13'17"E (167.221358)
Elevation:184 ft (56 m)
Variation:10.85°E (WMM2015v2 magnetic declination)
0.00° annual change
Runways:1
Longest:6562 × 98 ft (2000 × 30 m)

Time
Time Zone:UTC+11 (DST+12)

Weather
METAR:NVSS 040800Z 18001KT 9999 SCT025 27/26 Q1003 RMK SPECI CEASED

Related Locations
Nearby:
Farthest:MAX: 12413 mi / 19977 km
Matam [Ouro Sogui Airport], MT, SN

Find:

   beyond  
but within

Other Information
Maps:
NOTAMs:
Links:
Sources:

  
  • flag of Vanuatu
  

Sectional Chart

Flight Planning
at skyvector.com

Satellite Image

Google Maps Satellite view

 

Copyright © 2004-2019 Karl L. Swartz. All rights reserved.
The Great Circle Mapper name and logo are trademarks of the Great Circle Mapper.
All other trademarks mentioned herein belong to their respective owners.
Please see credits for attibutions and further copyright information.

  Follow gcmap on Facebook Follow gcmap on Twitter GCmap on LinkedIn

hCard Microformat

Geo Microformat